Time;durP1;ratioP1;P1;durP2;ratioP2;P2;SDS_P1;SDS_P2;PMS_P1;PMS_P2;Temp;Humidity;BMP_temperature;BMP_pressure;BME280_temperature;BME280_humidity;BME280_pressure;Samples;Min_cycle;Max_cycle;Signal;HPM_P1;HPM_P2
2022/09/16 00:01:20;;;;;;;1.83;0.90;;;;;;;;;;5092042;28;20039;-67
2022/09/16 00:03:47;;;;;;;1.52;0.70;;;;;;;;;;5089844;28;20071;-68
2022/09/16 00:06:25;;;;;;;2.53;0.73;;;;;;;;;;5087218;28;20118;-68
2022/09/16 00:08:59;;;;;;;1.57;0.73;;;;;;;;;;5086451;28;20024;-67
2022/09/16 00:11:33;;;;;;;2.08;0.90;;;;;;;;;;5087138;28;20024;-67
2022/09/16 00:14:07;;;;;;;2.37;0.87;;;;;;;;;;5089452;28;20040;-68
2022/09/16 00:16:38;;;;;;;0.98;0.75;;;;;;;;;;5092277;28;20017;-67
2022/09/16 00:19:12;;;;;;;1.00;0.80;;;;;;;;;;5092345;28;20067;-67
2022/09/16 00:21:43;;;;;;;1.60;0.97;;;;;;;;;;5091090;28;20700;-67
2022/09/16 00:24:15;;;;;;;1.20;0.70;;;;;;;;;;5092132;28;20582;-67
2022/09/16 00:26:52;;;;;;;0.60;0.50;;;;;;;;;;5088549;28;20020;-67
2022/09/16 00:29:26;;;;;;;0.77;0.50;;;;;;;;;;5086958;28;20028;-67
2022/09/16 00:31:57;;;;;;;20.20;0.95;;;;;;;;;;5086359;28;20024;-68
2022/09/16 00:34:31;;;;;;;0.50;0.40;;;;;;;;;;5086789;28;20533;-67
2022/09/16 00:37:08;;;;;;;0.47;0.47;;;;;;;;;;5092971;28;20066;-67
2022/09/16 00:39:42;;;;;;;6.23;0.50;;;;;;;;;;5095174;28;20036;-67
2022/09/16 00:42:16;;;;;;;1.17;0.80;;;;;;;;;;5094974;28;20039;-67
2022/09/16 00:44:53;;;;;;;0.25;0.25;;;;;;;;;;5096116;28;20042;-67
2022/09/16 00:47:35;;;;;;;2.20;0.93;;;;;;;;;;5095872;28;20028;-67
2022/09/16 00:50:14;;;;;;;2.77;1.33;;;;;;;;;;5090264;28;20059;-67
2022/09/16 00:52:45;;;;;;;1.90;1.13;;;;;;;;;;5090526;28;20032;-67
2022/09/16 00:55:25;;;;;;;4.33;1.57;;;;;;;;;;5089313;28;20020;-67
2022/09/16 00:57:58;;;;;;;3.33;1.90;;;;;;;;;;5070920;28;20478;-67
2022/09/16 01:00:32;;;;;;;3.53;1.27;;;;;;;;;;5090956;28;20359;-68
2022/09/16 01:03:03;;;;;;;2.92;1.38;;;;;;;;;;5095405;28;20060;-67
2022/09/16 01:05:38;;;;;;;3.50;1.17;;;;;;;;;;5095673;28;20074;-67
2022/09/16 01:08:09;;;;;;;5.00;0.97;;;;;;;;;;5094885;28;20417;-67
2022/09/16 01:10:43;;;;;;;1.63;0.93;;;;;;;;;;5093328;28;20026;-68
2022/09/16 01:13:15;;;;;;;1.50;0.80;;;;;;;;;;5090289;28;20466;-67
2022/09/16 01:15:52;;;;;;;1.47;1.00;;;;;;;;;;5090233;28;20063;-67
2022/09/16 01:18:44;;;;;;;1.03;0.60;;;;;;;;;;5090076;28;20039;-68
2022/09/16 01:21:22;;;;;;;1.17;0.80;;;;;;;;;;5092880;28;20029;-68
2022/09/16 01:24:09;;;;;;;1.13;0.73;;;;;;;;;;5095411;28;20020;-67
2022/09/16 01:26:53;;;;;;;1.03;0.77;;;;;;;;;;5095310;28;20068;-67
2022/09/16 01:29:30;;;;;;;2.58;0.55;;;;;;;;;;5094857;28;20029;-67
2022/09/16 01:32:18;;;;;;;3.23;1.07;;;;;;;;;;5094646;28;20077;-67
2022/09/16 01:35:15;;;;;;;;;;;;;;;;;;;;;
2022/09/16 01:38:08;;;;;;;1.17;0.83;;;;;;;;;;5089728;28;20027;-67
2022/09/16 01:40:52;;;;;;;0.50;0.37;;;;;;;;;;5089733;28;20109;-68
2022/09/16 01:43:35;;;;;;;3.20;1.40;;;;;;;;;;5091871;28;20111;-68
2022/09/16 01:46:28;;;;;;;2.23;1.10;;;;;;;;;;5094538;28;20058;-68
2022/09/16 01:49:02;;;;;;;1.00;0.70;;;;;;;;;;5093994;28;20028;-67
2022/09/16 01:52:05;;;;;;;1.23;0.82;;;;;;;;;;5074468;28;20090;-67
2022/09/16 01:54:48;;;;;;;2.10;1.33;;;;;;;;;;5041341;28;20391;-67
2022/09/16 01:57:22;;;;;;;1.60;0.93;;;;;;;;;;5087031;28;20466;-67
2022/09/16 01:59:56;;;;;;;3.20;1.08;;;;;;;;;;5088881;28;20040;-68
2022/09/16 02:02:36;;;;;;;1.17;0.88;;;;;;;;;;5089495;28;20031;-68
2022/09/16 02:05:12;;;;;;;1.23;1.07;;;;;;;;;;5090501;28;20069;-67
2022/09/16 02:07:52;;;;;;;3.13;1.83;;;;;;;;;;5094602;28;20026;-67
2022/09/16 02:10:26;;;;;;;6.37;1.00;;;;;;;;;;5093429;28;20047;-67
2022/09/16 02:13:00;;;;;;;1.92;1.00;;;;;;;;;;5093938;28;20370;-67
2022/09/16 02:15:38;;;;;;;1.30;1.00;;;;;;;;;;5094170;28;20020;-67
2022/09/16 02:18:15;;;;;;;1.50;1.10;;;;;;;;;;5090778;28;20089;-68
2022/09/16 02:20:54;;;;;;;3.37;1.70;;;;;;;;;;5088797;28;20060;-68
2022/09/16 02:23:27;;;;;;;2.57;1.43;;;;;;;;;;5068598;28;20028;-67
2022/09/16 02:26:03;;;;;;;1.40;1.07;;;;;;;;;;5068689;28;20021;-67
2022/09/16 02:28:35;;;;;;;2.00;1.30;;;;;;;;;;5090886;28;20093;-66
2022/09/16 02:31:11;;;;;;;2.57;1.37;;;;;;;;;;5094319;28;20070;-67
2022/09/16 02:33:49;;;;;;;6.17;1.30;;;;;;;;;;5092405;28;20048;-67
2022/09/16 02:36:21;;;;;;;2.93;1.60;;;;;;;;;;5080378;28;20027;-67
2022/09/16 02:38:50;;;;;;;1.73;1.40;;;;;;;;;;5082641;28;20023;-67
2022/09/16 02:41:17;;;;;;;2.63;1.50;;;;;;;;;;5089180;28;20035;-67
2022/09/16 02:43:44;;;;;;;6.07;1.73;;;;;;;;;;5088414;28;20040;-67
2022/09/16 02:46:11;;;;;;;1.80;1.27;;;;;;;;;;5088625;28;20082;-66
2022/09/16 02:48:46;;;;;;;2.60;1.33;;;;;;;;;;5087353;28;20031;-67
2022/09/16 02:51:12;;;;;;;;;;;;;;;;;;5092448;28;20031;-67
2022/09/16 02:53:52;;;;;;;1.87;1.00;;;;;;;;;;5093182;28;19908;-67
2022/09/16 02:56:24;;;;;;;3.17;1.27;;;;;;;;;;5088570;28;20028;-66
2022/09/16 02:58:51;;;;;;;2.43;1.20;;;;;;;;;;5089350;28;20441;-67
2022/09/16 03:01:19;;;;;;;2.37;1.27;;;;;;;;;;5074565;28;20367;-66
2022/09/16 03:03:46;;;;;;;1.97;0.93;;;;;;;;;;5088191;28;20072;-67
2022/09/16 03:06:20;;;;;;;1.13;0.90;;;;;;;;;;5086890;28;20032;-67
2022/09/16 03:08:48;;;;;;;1.45;0.77;;;;;;;;;;5088455;28;20024;-67
2022/09/16 03:11:27;;;;;;;0.67;0.53;;;;;;;;;;5087929;28;20085;-67
2022/09/16 03:14:06;;;;;;;0.87;0.57;;;;;;;;;;5092953;28;20031;-67
2022/09/16 03:16:47;;;;;;;0.60;0.53;;;;;;;;;;5092518;28;20032;-67
2022/09/16 03:19:21;;;;;;;0.77;0.70;;;;;;;;;;5092017;28;20111;-66
2022/09/16 03:21:55;;;;;;;5.33;1.00;;;;;;;;;;5091536;28;20035;-68
2022/09/16 03:24:39;;;;;;;0.98;0.70;;;;;;;;;;5090349;28;20052;-67
2022/09/16 03:27:11;;;;;;;0.40;0.40;;;;;;;;;;5087742;28;20031;-66
2022/09/16 03:29:41;;;;;;;0.47;0.47;;;;;;;;;;5083177;28;20111;-67
2022/09/16 03:32:14;;;;;;;0.73;0.60;;;;;;;;;;5080199;28;20078;-67
2022/09/16 03:34:41;;;;;;;0.53;0.53;;;;;;;;;;5078008;28;20112;-66
2022/09/16 03:37:10;;;;;;;0.97;0.67;;;;;;;;;;5092604;28;20054;-66
2022/09/16 03:39:37;;;;;;;1.10;0.97;;;;;;;;;;5090016;28;20036;-66
2022/09/16 03:42:06;;;;;;;5.43;1.53;;;;;;;;;;5087254;28;20031;-66
2022/09/16 03:44:34;;;;;;;0.90;0.80;;;;;;;;;;5079836;28;20050;-67
2022/09/16 03:47:01;;;;;;;1.30;1.00;;;;;;;;;;5084304;28;20035;-67
2022/09/16 03:49:29;;;;;;;2.23;1.23;;;;;;;;;;5087726;28;20032;-67
2022/09/16 03:51:56;;;;;;;1.97;1.30;;;;;;;;;;5075504;28;20095;-67
2022/09/16 03:54:23;;;;;;;5.33;1.37;;;;;;;;;;5090590;28;20035;-66
2022/09/16 03:56:49;;;;;;;0.73;0.60;;;;;;;;;;5079917;28;20077;-66
2022/09/16 03:59:16;;;;;;;0.73;0.60;;;;;;;;;;5080993;28;20055;-66
2022/09/16 04:01:44;;;;;;;1.93;0.93;;;;;;;;;;5093037;28;20016;-66
2022/09/16 04:04:11;;;;;;;5.97;1.30;;;;;;;;;;5079700;28;20032;-66
2022/09/16 04:06:38;;;;;;;1.60;1.03;;;;;;;;;;5091343;28;20036;-67
2022/09/16 04:09:07;;;;;;;0.43;0.40;;;;;;;;;;5077377;28;20020;-67
2022/09/16 04:11:35;;;;;;;2.20;1.17;;;;;;;;;;5077420;28;20025;-67
2022/09/16 04:14:01;;;;;;;2.03;0.80;;;;;;;;;;5082384;28;20016;-66
2022/09/16 04:16:29;;;;;;;1.70;0.97;;;;;;;;;;5086642;28;20027;-67
2022/09/16 04:18:55;;;;;;;1.07;0.70;;;;;;;;;;5077996;28;20032;-66
2022/09/16 04:21:22;;;;;;;0.77;0.70;;;;;;;;;;5081806;28;20020;-66
2022/09/16 04:23:49;;;;;;;0.63;0.57;;;;;;;;;;5093185;28;20024;-66
2022/09/16 04:26:16;;;;;;;0.57;0.57;;;;;;;;;;5076762;28;20028;-66
2022/09/16 04:28:43;;;;;;;1.27;0.77;;;;;;;;;;5089329;28;20415;-66
2022/09/16 04:31:11;;;;;;;1.23;0.77;;;;;;;;;;5078830;28;20040;-66
2022/09/16 04:33:38;;;;;;;0.70;0.53;;;;;;;;;;5087961;28;20463;-66
2022/09/16 04:36:07;;;;;;;1.20;0.90;;;;;;;;;;5072986;28;20028;-66
2022/09/16 04:38:34;;;;;;;1.97;1.17;;;;;;;;;;5079598;28;20107;-66
2022/09/16 04:41:04;;;;;;;3.00;1.13;;;;;;;;;;5080316;28;20474;-66
2022/09/16 04:43:31;;;;;;;1.07;0.83;;;;;;;;;;5082816;28;20028;-66
2022/09/16 04:45:58;;;;;;;1.40;1.07;;;;;;;;;;5086731;28;20016;-66
2022/09/16 04:48:25;;;;;;;1.70;1.10;;;;;;;;;;5075994;28;20070;-66
2022/09/16 04:50:52;;;;;;;5.97;1.30;;;;;;;;;;5088418;28;20482;-66
2022/09/16 04:53:20;;;;;;;1.07;0.77;;;;;;;;;;5083754;28;20093;-66
2022/09/16 04:55:47;;;;;;;1.53;1.10;;;;;;;;;;5073984;28;20021;-66
2022/09/16 04:58:14;;;;;;;0.90;0.70;;;;;;;;;;5083559;28;20028;-66
2022/09/16 05:00:41;;;;;;;1.00;0.80;;;;;;;;;;5082357;28;20028;-67
2022/09/16 05:03:07;;;;;;;1.47;1.20;;;;;;;;;;5074034;28;20036;-66
2022/09/16 05:05:34;;;;;;;3.13;1.50;;;;;;;;;;5076838;28;20162;-66
2022/09/16 05:08:01;;;;;;;1.23;0.83;;;;;;;;;;5085497;28;20027;-66
2022/09/16 05:10:28;;;;;;;2.43;1.10;;;;;;;;;;5089954;28;20065;-66
2022/09/16 05:12:54;;;;;;;1.03;0.73;;;;;;;;;;5092306;28;20020;-65
2022/09/16 05:15:21;;;;;;;1.67;0.90;;;;;;;;;;5091770;28;20078;-65
2022/09/16 05:17:49;;;;;;;1.63;1.10;;;;;;;;;;5086699;28;20077;-66
2022/09/16 05:20:16;;;;;;;0.93;0.73;;;;;;;;;;5087522;28;20035;-66
2022/09/16 05:22:43;;;;;;;0.80;0.63;;;;;;;;;;5087134;28;20111;-66
2022/09/16 05:25:10;;;;;;;0.50;0.50;;;;;;;;;;5090435;28;20664;-66
2022/09/16 05:27:36;;;;;;;1.20;0.70;;;;;;;;;;5095503;28;20024;-66
2022/09/16 05:30:03;;;;;;;0.33;0.33;;;;;;;;;;5095563;28;20020;-66
2022/09/16 05:32:30;;;;;;;4.10;1.00;;;;;;;;;;5095372;28;20028;-66
2022/09/16 05:34:57;;;;;;;0.63;0.50;;;;;;;;;;5096164;28;20028;-66
2022/09/16 05:37:23;;;;;;;1.30;1.00;;;;;;;;;;5094644;28;20024;-68
2022/09/16 05:39:50;;;;;;;1.37;0.93;;;;;;;;;;5089005;28;20028;-68
2022/09/16 05:42:16;;;;;;;1.63;1.13;;;;;;;;;;5090414;28;20024;-68
2022/09/16 05:44:43;;;;;;;0.80;0.57;;;;;;;;;;5090034;28;20032;-67
2022/09/16 05:47:10;;;;;;;0.50;0.50;;;;;;;;;;5089481;28;20027;-69
2022/09/16 05:49:37;;;;;;;2.47;0.90;;;;;;;;;;5093372;28;20024;-67
2022/09/16 05:52:03;;;;;;;1.70;1.07;;;;;;;;;;5092706;28;20098;-67
2022/09/16 05:54:30;;;;;;;1.00;0.70;;;;;;;;;;5094673;28;20031;-67
2022/09/16 05:56:57;;;;;;;1.13;0.80;;;;;;;;;;5094766;28;20023;-67
2022/09/16 05:59:23;;;;;;;1.03;0.77;;;;;;;;;;5094485;28;20099;-67
2022/09/16 06:01:50;;;;;;;0.70;0.50;;;;;;;;;;5089329;28;20032;-67
2022/09/16 06:04:17;;;;;;;1.30;0.77;;;;;;;;;;5089207;28;20044;-67
2022/09/16 06:06:45;;;;;;;2.50;1.13;;;;;;;;;;5089274;28;20124;-67
2022/09/16 06:09:13;;;;;;;0.87;0.40;;;;;;;;;;5089063;28;20478;-67
2022/09/16 06:11:41;;;;;;;0.87;0.40;;;;;;;;;;5092639;28;20482;-68
2022/09/16 06:14:08;;;;;;;0.83;0.50;;;;;;;;;;5094059;28;20107;-67
2022/09/16 06:16:35;;;;;;;1.60;1.20;;;;;;;;;;5093893;28;20146;-67
2022/09/16 06:19:04;;;;;;;1.20;0.40;;;;;;;;;;5094055;28;20053;-67
2022/09/16 06:21:31;;;;;;;1.43;0.90;;;;;;;;;;5094348;28;20036;-67
2022/09/16 06:23:58;;;;;;;1.67;0.90;;;;;;;;;;5090078;28;20024;-68
2022/09/16 06:26:25;;;;;;;1.20;0.80;;;;;;;;;;5088422;28;20020;-67
2022/09/16 06:28:52;;;;;;;1.83;0.63;;;;;;;;;;5088623;28;20032;-67
2022/09/16 06:31:20;;;;;;;20.53;0.83;;;;;;;;;;5088704;28;20021;-67
2022/09/16 06:33:49;;;;;;;0.80;0.70;;;;;;;;;;5091261;28;20073;-67
2022/09/16 06:36:19;;;;;;;3.73;1.37;;;;;;;;;;5093789;28;20576;-67
2022/09/16 06:38:47;;;;;;;1.97;1.40;;;;;;;;;;5093941;28;20427;-67
2022/09/16 06:41:14;;;;;;;1.70;0.97;;;;;;;;;;5093547;28;20387;-67
2022/09/16 06:43:41;;;;;;;1.87;1.37;;;;;;;;;;5093797;28;20167;-67
2022/09/16 06:46:12;;;;;;;2.63;1.83;;;;;;;;;;5089808;28;20736;-67
2022/09/16 06:48:40;;;;;;;1.80;1.30;;;;;;;;;;5087730;28;20028;-68
2022/09/16 06:51:09;;;;;;;1.57;0.87;;;;;;;;;;5088295;28;20063;-68
2022/09/16 06:53:36;;;;;;;0.80;0.80;;;;;;;;;;5088179;28;20012;-67
2022/09/16 06:56:04;;;;;;;2.73;1.00;;;;;;;;;;5091384;28;20028;-67
2022/09/16 06:58:34;;;;;;;0.63;0.57;;;;;;;;;;5093538;28;20020;-67
2022/09/16 07:01:11;;;;;;;1.70;1.07;;;;;;;;;;5093016;28;20036;-68
2022/09/16 07:03:39;;;;;;;1.13;0.80;;;;;;;;;;5093345;28;20031;-67
2022/09/16 07:06:06;;;;;;;0.97;0.40;;;;;;;;;;5093593;28;20099;-67
2022/09/16 07:08:33;;;;;;;0.87;0.70;;;;;;;;;;5089244;28;20095;-68
2022/09/16 07:11:01;;;;;;;1.20;0.93;;;;;;;;;;5087926;28;20031;-68
2022/09/16 07:13:28;;;;;;;1.60;1.20;;;;;;;;;;5087671;28;20099;-67
2022/09/16 07:15:59;;;;;;;1.30;1.00;;;;;;;;;;5087435;28;20039;-68
2022/09/16 07:18:26;;;;;;;0.53;0.40;;;;;;;;;;5091112;28;20422;-68
2022/09/16 07:20:53;;;;;;;0.47;0.27;;;;;;;;;;5092915;28;20441;-67
2022/09/16 07:23:19;;;;;;;1.23;0.73;;;;;;;;;;5093145;28;20043;-67
2022/09/16 07:25:46;;;;;;;3.10;0.90;;;;;;;;;;5092682;28;20497;-67
2022/09/16 07:28:13;;;;;;;2.43;0.53;;;;;;;;;;5093160;28;20020;-67
2022/09/16 07:30:39;;;;;;;1.43;0.50;;;;;;;;;;5089341;28;20051;-67
2022/09/16 07:33:06;;;;;;;0.43;0.40;;;;;;;;;;5087449;28;20027;-66
2022/09/16 07:35:33;;;;;;;0.40;0.30;;;;;;;;;;5087854;28;20718;-66
2022/09/16 07:38:00;;;;;;;0.27;0.20;;;;;;;;;;5087102;28;20728;-66
2022/09/16 07:40:27;;;;;;;0.20;0.20;;;;;;;;;;5090035;28;20166;-66
2022/09/16 07:42:54;;;;;;;0.20;0.20;;;;;;;;;;5092795;28;20028;-66
2022/09/16 07:45:20;;;;;;;0.20;0.20;;;;;;;;;;5092246;28;20023;-66
2022/09/16 07:47:49;;;;;;;0.20;0.10;;;;;;;;;;5092365;28;20085;-66
2022/09/16 07:50:16;;;;;;;0.10;0.10;;;;;;;;;;5092044;28;20066;-66
2022/09/16 07:52:42;;;;;;;0.00;0.00;;;;;;;;;;5089494;28;20798;-67
2022/09/16 07:55:09;;;;;;;0.10;0.10;;;;;;;;;;5087056;28;20012;-66
2022/09/16 07:57:36;;;;;;;0.00;0.00;;;;;;;;;;5087145;28;20028;-67
2022/09/16 08:00:03;;;;;;;2.37;0.63;;;;;;;;;;5087040;28;20039;-66
2022/09/16 08:02:30;;;;;;;0.37;0.27;;;;;;;;;;5089039;28;20032;-66
2022/09/16 08:04:56;;;;;;;0.00;0.00;;;;;;;;;;5091599;28;20062;-66
2022/09/16 08:07:23;;;;;;;0.00;0.00;;;;;;;;;;5092507;28;20024;-66
2022/09/16 08:09:50;;;;;;;0.20;0.10;;;;;;;;;;5092237;28;20119;-66
2022/09/16 08:12:16;;;;;;;0.37;0.23;;;;;;;;;;5092437;28;20028;-66
2022/09/16 08:14:43;;;;;;;0.07;0.07;;;;;;;;;;5089271;28;20020;-67
2022/09/16 08:17:10;;;;;;;0.10;0.03;;;;;;;;;;5087076;28;20073;-66
2022/09/16 08:19:38;;;;;;;0.00;0.00;;;;;;;;;;5086936;28;20486;-66
2022/09/16 08:22:04;;;;;;;1.10;0.10;;;;;;;;;;5086572;28;20096;-67
2022/09/16 08:24:31;;;;;;;0.00;0.00;;;;;;;;;;5088320;28;20028;-67
2022/09/16 08:26:58;;;;;;;0.20;0.10;;;;;;;;;;5092304;28;20027;-66
2022/09/16 08:29:24;;;;;;;2.13;0.23;;;;;;;;;;5092291;28;20020;-66
2022/09/16 08:31:51;;;;;;;0.20;0.20;;;;;;;;;;5092282;28;20028;-66
2022/09/16 08:34:18;;;;;;;0.10;0.10;;;;;;;;;;5092295;28;20484;-66
2022/09/16 08:36:45;;;;;;;0.00;0.00;;;;;;;;;;5090005;28;20119;-66
2022/09/16 08:39:13;;;;;;;0.00;0.00;;;;;;;;;;5086219;28;20107;-66
2022/09/16 08:41:46;;;;;;;0.00;0.00;;;;;;;;;;5086495;28;20085;-66
2022/09/16 08:44:13;;;;;;;0.97;0.40;;;;;;;;;;5086735;28;20028;-66
2022/09/16 08:46:58;;;;;;;0.00;0.00;;;;;;;;;;5087806;28;20024;-66
2022/09/16 08:49:30;;;;;;;0.00;0.00;;;;;;;;;;5091664;28;20380;-67
2022/09/16 08:51:59;;;;;;;0.10;0.10;;;;;;;;;;5091694;28;20111;-66
2022/09/16 08:54:37;;;;;;;0.00;0.00;;;;;;;;;;5092006;28;20028;-65
2022/09/16 08:57:05;;;;;;;0.00;0.00;;;;;;;;;;5092141;28;20034;-66
2022/09/16 08:59:36;;;;;;;0.00;0.00;;;;;;;;;;5092264;28;20154;-67
2022/09/16 09:02:08;;;;;;;0.00;0.00;;;;;;;;;;5089951;28;20024;-66
2022/09/16 09:04:35;;;;;;;0.67;0.53;;;;;;;;;;5090263;28;20063;-68
2022/09/16 09:07:08;;;;;;;0.00;0.00;;;;;;;;;;5090379;28;20024;-66
2022/09/16 09:09:53;;;;;;;0.00;0.00;;;;;;;;;;5092917;28;20024;-66
2022/09/16 09:12:46;;;;;;;0.13;0.10;;;;;;;;;;5095722;28;20020;-66
2022/09/16 09:15:31;;;;;;;0.83;0.47;;;;;;;;;;5092622;28;20371;-66
2022/09/16 09:18:16;;;;;;;0.55;0.20;;;;;;;;;;5095168;28;20111;-66
2022/09/16 09:20:53;;;;;;;0.20;0.10;;;;;;;;;;5095124;28;20032;-66
2022/09/16 09:23:22;;;;;;;0.00;0.00;;;;;;;;;;5090048;28;20020;-66
2022/09/16 09:25:58;;;;;;;0.03;0.00;;;;;;;;;;5089606;28;20036;-67
2022/09/16 09:28:28;;;;;;;0.00;0.00;;;;;;;;;;5089934;28;20134;-66
2022/09/16 09:31:02;;;;;;;0.00;0.00;;;;;;;;;;5090225;28;20020;-66
2022/09/16 09:33:35;;;;;;;0.20;0.07;;;;;;;;;;5095087;28;20043;-66
2022/09/16 09:36:31;;;;;;;0.00;0.00;;;;;;;;;;5095141;28;20031;-66
2022/09/16 09:38:57;;;;;;;;;;;;;;;;;;5082189;28;20063;-66
2022/09/16 09:41:33;;;;;;;0.00;0.00;;;;;;;;;;5095042;28;19923;-66
2022/09/16 09:44:03;;;;;;;0.10;0.10;;;;;;;;;;5092291;28;20106;-66
2022/09/16 09:46:41;;;;;;;0.10;0.00;;;;;;;;;;5089606;28;20028;-66
2022/09/16 09:49:12;;;;;;;0.23;0.13;;;;;;;;;;5089189;28;20016;-67
2022/09/16 09:51:45;;;;;;;0.07;0.00;;;;;;;;;;5069318;28;20375;-66
2022/09/16 09:54:18;;;;;;;0.10;0.00;;;;;;;;;;5071823;28;20086;-65
2022/09/16 09:56:45;;;;;;;0.33;0.20;;;;;;;;;;5074796;28;20032;-66
2022/09/16 09:59:27;;;;;;;0.00;0.00;;;;;;;;;;5074264;28;20089;-66
2022/09/16 10:01:57;;;;;;;0.30;0.20;;;;;;;;;;5082650;28;20020;-66
2022/09/16 10:04:24;;;;;;;0.00;0.00;;;;;;;;;;5094448;28;20111;-66
2022/09/16 10:06:52;;;;;;;0.00;0.00;;;;;;;;;;5090386;28;20486;-66
2022/09/16 10:09:20;;;;;;;0.00;0.00;;;;;;;;;;5088604;28;20403;-66
2022/09/16 10:11:50;;;;;;;0.30;0.10;;;;;;;;;;5088941;28;20036;-65
2022/09/16 10:14:24;;;;;;;1.00;0.17;;;;;;;;;;5088757;28;20036;-66
2022/09/16 10:16:52;;;;;;;0.10;0.10;;;;;;;;;;5074203;28;20386;-66
2022/09/16 10:19:18;;;;;;;0.00;0.00;;;;;;;;;;5094080;28;20091;-66
2022/09/16 10:21:53;;;;;;;0.00;0.00;;;;;;;;;;5094032;28;20016;-65
2022/09/16 10:24:30;;;;;;;0.47;0.10;;;;;;;;;;5094125;28;20024;-66
2022/09/16 10:26:57;;;;;;;0.00;0.00;;;;;;;;;;5093908;28;20032;-66
2022/09/16 10:29:24;;;;;;;0.17;0.10;;;;;;;;;;5089587;28;20494;-66
2022/09/16 10:31:51;;;;;;;0.20;0.20;;;;;;;;;;5088462;28;20016;-66
2022/09/16 10:34:29;;;;;;;0.00;0.00;;;;;;;;;;5088716;28;20050;-66
2022/09/16 10:37:11;;;;;;;0.37;0.00;;;;;;;;;;5088646;28;20052;-66
2022/09/16 10:39:43;;;;;;;0.10;0.10;;;;;;;;;;5074839;28;20406;-67
2022/09/16 10:42:23;;;;;;;0.00;0.00;;;;;;;;;;5093480;28;20035;-65
2022/09/16 10:44:52;;;;;;;0.60;0.33;;;;;;;;;;5093726;28;20111;-65
2022/09/16 10:47:21;;;;;;;0.00;0.00;;;;;;;;;;5093557;28;20055;-66
2022/09/16 10:49:50;;;;;;;0.00;0.00;;;;;;;;;;5093216;28;20360;-66
2022/09/16 10:52:18;;;;;;;0.07;0.07;;;;;;;;;;5087620;28;20034;-66
2022/09/16 10:54:45;;;;;;;0.33;0.10;;;;;;;;;;5087987;28;20483;-65
2022/09/16 10:57:21;;;;;;;0.20;0.20;;;;;;;;;;5088126;28;20055;-65
2022/09/16 11:00:10;;;;;;;0.10;0.10;;;;;;;;;;5088110;28;20105;-66
2022/09/16 11:02:43;;;;;;;0.17;0.10;;;;;;;;;;5092712;28;20030;-66
2022/09/16 11:05:32;;;;;;;0.07;0.07;;;;;;;;;;5093421;28;20103;-66
2022/09/16 11:08:16;;;;;;;0.10;0.10;;;;;;;;;;5093644;28;20027;-65
2022/09/16 11:10:58;;;;;;;0.00;0.00;;;;;;;;;;5093210;28;20020;-66
2022/09/16 11:13:43;;;;;;;0.00;0.00;;;;;;;;;;5090228;28;20095;-66
2022/09/16 11:16:10;;;;;;;0.40;0.20;;;;;;;;;;5067740;28;20051;-65
2022/09/16 11:18:45;;;;;;;0.00;0.00;;;;;;;;;;5067041;28;20440;-66
2022/09/16 11:21:41;;;;;;;0.10;0.10;;;;;;;;;;5066550;28;20035;-66
2022/09/16 11:24:08;;;;;;;0.17;0.10;;;;;;;;;;5054305;28;20040;-65
2022/09/16 11:26:39;;;;;;;0.60;0.10;;;;;;;;;;5082820;28;20409;-66
2022/09/16 11:29:24;;;;;;;0.00;0.00;;;;;;;;;;5093084;28;20115;-66
2022/09/16 11:31:54;;;;;;;0.55;0.30;;;;;;;;;;5093016;28;20099;-66
2022/09/16 11:34:27;;;;;;;0.10;0.10;;;;;;;;;;5092862;28;20028;-66
2022/09/16 11:36:59;;;;;;;0.00;0.00;;;;;;;;;;5087141;28;20020;-66
2022/09/16 11:39:26;;;;;;;0.13;0.13;;;;;;;;;;5087159;28;20016;-65
2022/09/16 11:42:01;;;;;;;0.00;0.00;;;;;;;;;;5087508;28;20032;-65
2022/09/16 11:44:31;;;;;;;1.50;0.20;;;;;;;;;;5087379;28;20027;-66
2022/09/16 11:47:01;;;;;;;8.40;0.40;;;;;;;;;;5092588;28;20493;-66
2022/09/16 11:49:52;;;;;;;0.20;0.10;;;;;;;;;;5092845;28;20024;-66
2022/09/16 11:52:45;;;;;;;0.10;0.10;;;;;;;;;;5072338;28;20025;-66
2022/09/16 11:55:27;;;;;;;0.10;0.07;;;;;;;;;;5041780;28;20383;-66
2022/09/16 11:57:55;;;;;;;1.40;0.20;;;;;;;;;;5069722;28;20021;-66
2022/09/16 12:00:22;;;;;;;0.00;0.00;;;;;;;;;;5067082;28;20114;-66
2022/09/16 12:03:02;;;;;;;0.43;0.07;;;;;;;;;;5075564;28;20031;-65
2022/09/16 12:05:35;;;;;;;0.00;0.00;;;;;;;;;;5087011;28;20032;-66
2022/09/16 12:08:01;;;;;;;0.20;0.20;;;;;;;;;;5089839;28;20024;-65
2022/09/16 12:10:32;;;;;;;0.20;0.10;;;;;;;;;;5092307;28;20055;-66
2022/09/16 12:13:02;;;;;;;0.97;0.33;;;;;;;;;;5092325;28;20020;-65
2022/09/16 12:15:33;;;;;;;0.20;0.10;;;;;;;;;;5091627;28;20024;-66
2022/09/16 12:18:22;;;;;;;0.10;0.10;;;;;;;;;;5092327;28;20031;-65
2022/09/16 12:20:52;;;;;;;0.60;0.10;;;;;;;;;;5077291;28;20036;-65
2022/09/16 12:23:22;;;;;;;0.87;0.47;;;;;;;;;;5086758;28;20024;-65
2022/09/16 12:26:05;;;;;;;0.07;0.03;;;;;;;;;;5086705;28;20031;-65
2022/09/16 12:28:36;;;;;;;0.03;0.03;;;;;;;;;;5086771;28;20055;-66
2022/09/16 12:31:25;;;;;;;0.00;0.00;;;;;;;;;;5091256;28;20028;-65
2022/09/16 12:33:57;;;;;;;0.10;0.10;;;;;;;;;;5096299;28;20059;-66
2022/09/16 12:36:34;;;;;;;0.40;0.20;;;;;;;;;;5096420;28;20082;-65
2022/09/16 12:39:01;;;;;;;1.13;0.83;;;;;;;;;;5095996;28;20020;-65
2022/09/16 12:41:43;;;;;;;2.37;1.50;;;;;;;;;;5095328;28;20119;-66
2022/09/16 12:44:16;;;;;;;1.40;1.23;;;;;;;;;;5090539;28;20024;-65
2022/09/16 12:46:51;;;;;;;1.17;1.07;;;;;;;;;;5090760;28;20154;-65
2022/09/16 12:49:20;;;;;;;2.42;1.63;;;;;;;;;;5090284;28;20430;-65
2022/09/16 12:52:05;;;;;;;0.33;0.33;;;;;;;;;;5091841;28;20482;-65
2022/09/16 12:54:47;;;;;;;1.17;1.08;;;;;;;;;;5096022;28;20039;-65
2022/09/16 12:57:20;;;;;;;0.77;0.50;;;;;;;;;;5095789;28;20028;-66
2022/09/16 12:59:49;;;;;;;0.20;0.20;;;;;;;;;;5095428;28;20085;-66
2022/09/16 13:02:21;;;;;;;0.57;0.40;;;;;;;;;;5095329;28;20024;-66
2022/09/16 13:04:49;;;;;;;0.60;0.33;;;;;;;;;;5072465;28;20052;-66
2022/09/16 13:07:21;;;;;;;0.60;0.50;;;;;;;;;;5073083;28;20016;-65
2022/09/16 13:09:48;;;;;;;0.60;0.40;;;;;;;;;;5090370;28;20020;-65
2022/09/16 13:12:22;;;;;;;0.07;0.07;;;;;;;;;;5089114;28;20016;-65
2022/09/16 13:14:51;;;;;;;0.10;0.10;;;;;;;;;;5089453;28;20067;-65
2022/09/16 13:17:27;;;;;;;0.87;0.47;;;;;;;;;;5095277;28;20103;-65
2022/09/16 13:19:55;;;;;;;0.10;0.10;;;;;;;;;;5095265;28;20040;-65
2022/09/16 13:22:44;;;;;;;0.00;0.00;;;;;;;;;;5095406;28;20039;-65
2022/09/16 13:25:32;;;;;;;0.20;0.20;;;;;;;;;;5066800;28;20040;-65
2022/09/16 13:28:03;;;;;;;0.43;0.30;;;;;;;;;;5084551;28;20785;-64
2022/09/16 13:30:39;;;;;;;0.30;0.20;;;;;;;;;;5084903;28;20032;-63
2022/09/16 13:33:09;;;;;;;0.30;0.20;;;;;;;;;;5079359;28;20024;-64
2022/09/16 13:35:36;;;;;;;0.83;0.50;;;;;;;;;;5090226;28;20023;-63
2022/09/16 13:38:11;;;;;;;0.40;0.10;;;;;;;;;;5095704;28;20053;-64
2022/09/16 13:40:38;;;;;;;0.63;0.30;;;;;;;;;;5095588;28;20024;-64
2022/09/16 13:43:11;;;;;;;0.20;0.20;;;;;;;;;;5092312;28;20024;-64
2022/09/16 13:45:39;;;;;;;0.30;0.20;;;;;;;;;;5095021;28;20519;-64
2022/09/16 13:48:10;;;;;;;0.40;0.40;;;;;;;;;;5095398;28;20497;-64
2022/09/16 13:50:37;;;;;;;0.10;0.10;;;;;;;;;;5089792;28;20020;-64
2022/09/16 13:53:22;;;;;;;0.27;0.20;;;;;;;;;;5090389;28;20562;-64
2022/09/16 13:55:50;;;;;;;0.52;0.10;;;;;;;;;;5090067;28;20471;-64
2022/09/16 13:58:27;;;;;;;0.10;0.10;;;;;;;;;;5089914;28;20612;-64
2022/09/16 14:00:57;;;;;;;0.10;0.10;;;;;;;;;;5095415;28;20487;-64
2022/09/16 14:03:24;;;;;;;0.30;0.20;;;;;;;;;;5095445;28;20024;-64
2022/09/16 14:06:09;;;;;;;0.83;0.60;;;;;;;;;;5095482;28;20024;-64
2022/09/16 14:08:47;;;;;;;0.63;0.35;;;;;;;;;;5083771;28;20581;-64
2022/09/16 14:11:14;;;;;;;3.40;0.43;;;;;;;;;;5087305;28;20065;-64
2022/09/16 14:13:44;;;;;;;0.83;0.33;;;;;;;;;;5082861;28;20108;-64
2022/09/16 14:16:30;;;;;;;0.57;0.30;;;;;;;;;;5084556;28;20047;-64
2022/09/16 14:19:00;;;;;;;0.27;0.20;;;;;;;;;;5085211;28;20033;-64
2022/09/16 14:21:27;;;;;;;0.30;0.20;;;;;;;;;;5089723;28;20067;-65
2022/09/16 14:23:53;;;;;;;0.33;0.30;;;;;;;;;;5094940;28;20027;-64
2022/09/16 14:26:22;;;;;;;5.57;0.30;;;;;;;;;;5094431;28;20169;-64
2022/09/16 14:28:49;;;;;;;0.10;0.10;;;;;;;;;;5084155;28;20031;-64
2022/09/16 14:31:20;;;;;;;0.10;0.10;;;;;;;;;;5090723;28;20023;-65
2022/09/16 14:33:54;;;;;;;5.13;0.10;;;;;;;;;;5091554;28;20025;-64
2022/09/16 14:36:23;;;;;;;0.83;0.57;;;;;;;;;;5081262;28;20760;-64
2022/09/16 14:38:54;;;;;;;0.23;0.20;;;;;;;;;;5088632;28;20026;-64
2022/09/16 14:41:25;;;;;;;1.27;0.77;;;;;;;;;;5089117;28;20426;-65
2022/09/16 14:43:53;;;;;;;0.37;0.30;;;;;;;;;;5091318;28;20031;-64
2022/09/16 14:46:20;;;;;;;1.27;0.60;;;;;;;;;;5094288;28;20061;-64
2022/09/16 14:48:47;;;;;;;0.40;0.37;;;;;;;;;;5093291;28;20382;-64
2022/09/16 14:51:19;;;;;;;0.57;0.30;;;;;;;;;;5089427;28;20028;-65
2022/09/16 14:53:54;;;;;;;0.33;0.20;;;;;;;;;;5089976;28;20020;-65
2022/09/16 14:56:21;;;;;;;1.83;0.90;;;;;;;;;;5078334;28;20028;-65
2022/09/16 14:58:48;;;;;;;0.10;0.10;;;;;;;;;;5082759;28;20020;-65
2022/09/16 15:01:19;;;;;;;0.63;0.63;;;;;;;;;;5084880;28;20024;-65
2022/09/16 15:03:45;;;;;;;0.80;0.60;;;;;;;;;;5086833;28;20771;-64
2022/09/16 15:06:15;;;;;;;1.80;0.97;;;;;;;;;;5088655;28;20472;-65
2022/09/16 15:08:45;;;;;;;3.03;0.40;;;;;;;;;;5092439;28;20027;-64
2022/09/16 15:11:17;;;;;;;0.57;0.37;;;;;;;;;;5087320;28;20078;-64
2022/09/16 15:13:44;;;;;;;1.17;0.53;;;;;;;;;;5091147;28;20027;-65